createdAt,value
2023-02-13T00:02:40.121Z,13.40
2023-02-13T00:06:08.062Z,12.80
2023-02-13T00:09:35.376Z,13.20
2023-02-13T00:13:05.753Z,12.50
2023-02-13T00:16:33.276Z,12.50
2023-02-13T00:20:00.809Z,12.30
2023-02-13T00:23:28.941Z,12.00
2023-02-13T00:26:56.228Z,12.20
2023-02-13T00:30:24.071Z,11.80
2023-02-13T00:33:51.594Z,12.80
2023-02-13T00:37:18.996Z,13.80
2023-02-13T00:40:56.537Z,12.20
2023-02-13T00:44:24.170Z,15.20
2023-02-13T00:47:51.323Z,14.00
2023-02-13T00:51:20.927Z,15.30
2023-02-13T00:54:48.425Z,14.40
2023-02-13T00:58:16.011Z,14.20
2023-02-13T01:01:45.221Z,14.10
2023-02-13T01:05:13.110Z,15.80
2023-02-13T01:08:43.346Z,14.60
2023-02-13T01:12:11.231Z,14.50
2023-02-13T01:15:38.900Z,14.70
2023-02-13T01:19:07.393Z,14.60
2023-02-13T01:22:34.825Z,15.30
2023-02-13T01:26:02.235Z,14.40
2023-02-13T01:29:29.423Z,15.50
2023-02-13T01:32:56.634Z,14.70
2023-02-13T01:36:24.060Z,14.30
2023-02-13T01:39:56.461Z,14.00
2023-02-13T01:43:26.162Z,13.90
2023-02-13T01:46:54.078Z,13.50
2023-02-13T01:50:46.108Z,14.60
2023-02-13T01:54:18.467Z,15.70
2023-02-13T01:57:50.687Z,14.50
2023-02-13T02:01:18.433Z,14.70
2023-02-13T02:04:47.964Z,14.30
2023-02-13T02:08:18.549Z,14.20
2023-02-13T02:12:02.499Z,13.90
2023-02-13T02:15:30.503Z,14.00
2023-02-13T02:18:58.347Z,14.00
2023-02-13T02:22:58.291Z,13.80
2023-02-13T02:26:59.692Z,13.50
2023-02-13T02:31:17.470Z,14.00
2023-02-13T02:34:57.679Z,13.90
2023-02-13T02:38:40.570Z,13.70
2023-02-13T02:42:19.561Z,13.80
2023-02-13T02:45:54.337Z,14.70
2023-02-13T02:49:54.334Z,12.90
2023-02-13T02:53:49.411Z,13.60
2023-02-13T02:57:23.092Z,15.20
2023-02-13T03:01:16.882Z,15.80
2023-02-13T03:05:08.149Z,13.50
2023-02-13T03:08:52.872Z,13.50
2023-02-13T03:12:41.943Z,13.40
2023-02-13T03:16:30.939Z,13.60
2023-02-13T03:20:25.222Z,14.70
2023-02-13T03:24:02.356Z,15.10
2023-02-13T03:27:58.532Z,15.70
2023-02-13T03:31:33.377Z,13.70
2023-02-13T03:35:39.070Z,13.90
2023-02-13T03:39:13.892Z,15.00
2023-02-13T03:42:47.106Z,13.60
2023-02-13T03:46:15.676Z,15.30
2023-02-13T03:50:08.086Z,16.00
2023-02-13T03:53:39.494Z,14.00
2023-02-13T03:57:24.295Z,13.30
2023-02-13T04:00:55.350Z,13.50
2023-02-13T04:04:28.996Z,13.40
2023-02-13T04:07:56.420Z,14.00
2023-02-13T04:11:32.150Z,15.20
2023-02-13T04:15:05.559Z,15.20
2023-02-13T04:18:34.228Z,16.60
2023-02-13T04:22:03.263Z,16.40
2023-02-13T04:25:30.540Z,15.80
2023-02-13T04:28:57.727Z,15.60
2023-02-13T04:32:24.987Z,14.10
2023-02-13T04:35:52.715Z,14.30
2023-02-13T04:39:20.736Z,15.40
2023-02-13T04:42:50.416Z,16.50
2023-02-13T04:49:43.395Z,13.80
2023-02-13T04:53:10.748Z,14.80
2023-02-13T04:56:37.825Z,14.20
2023-02-13T05:00:05.664Z,14.30
2023-02-13T05:03:32.847Z,14.80
2023-02-13T05:07:00.143Z,15.90
2023-02-13T05:10:27.561Z,15.00
2023-02-13T05:13:55.103Z,15.70
2023-02-13T05:17:22.418Z,16.90
2023-02-13T05:21:09.856Z,15.30
2023-02-13T05:24:36.951Z,17.30
2023-02-13T05:28:04.731Z,15.10
2023-02-13T05:31:32.013Z,14.90
2023-02-13T05:34:59.405Z,16.50
2023-02-13T05:38:26.556Z,17.60
2023-02-13T05:41:53.849Z,16.90
2023-02-13T05:45:21.418Z,16.60
2023-02-13T05:48:48.450Z,16.90
2023-02-13T05:52:15.740Z,16.20
2023-02-13T05:55:43.240Z,18.90
2023-02-13T05:59:10.776Z,18.30
2023-02-13T06:02:38.039Z,16.40
2023-02-13T06:06:05.852Z,16.30
2023-02-13T06:09:33.170Z,16.40
2023-02-13T06:13:00.453Z,15.90
2023-02-13T06:16:28.141Z,16.60
2023-02-13T06:19:55.566Z,15.40
2023-02-13T06:23:22.651Z,16.00
2023-02-13T06:26:49.902Z,15.30
2023-02-13T06:33:49.134Z,14.30
2023-02-13T06:37:27.393Z,13.00
2023-02-13T06:40:54.516Z,12.70
2023-02-13T06:44:21.988Z,13.30
2023-02-13T06:47:50.380Z,13.10
2023-02-13T06:51:17.820Z,12.90
2023-02-13T06:54:48.053Z,12.50
2023-02-13T06:58:15.527Z,12.40
2023-02-13T07:01:42.908Z,13.60
2023-02-13T07:05:11.642Z,14.20
2023-02-13T07:08:38.764Z,15.80
2023-02-13T07:12:08.397Z,15.40
2023-02-13T07:19:01.373Z,15.20
2023-02-13T07:22:28.787Z,16.90
2023-02-13T07:25:56.154Z,16.40
2023-02-13T07:29:23.387Z,15.80
2023-02-13T07:32:53.287Z,15.40
2023-02-13T07:36:20.566Z,16.00
2023-02-13T07:39:47.782Z,17.00
2023-02-13T07:43:17.592Z,14.30
2023-02-13T07:46:44.925Z,13.40
2023-02-13T07:50:13.800Z,13.50
2023-02-13T07:53:41.015Z,14.70
2023-02-13T07:57:08.477Z,13.40
2023-02-13T08:00:35.686Z,11.50
2023-02-13T08:04:02.878Z,11.80
2023-02-13T08:07:30.213Z,13.70
2023-02-13T08:11:16.184Z,11.30
2023-02-13T08:14:43.651Z,12.10
2023-02-13T08:18:11.048Z,12.70
2023-02-13T08:21:38.351Z,12.10
2023-02-13T08:25:06.047Z,13.50
2023-02-13T08:28:33.321Z,13.10
2023-02-13T08:32:00.697Z,10.90
2023-02-13T08:35:29.847Z,10.90
2023-02-13T08:38:57.082Z,13.50
2023-02-13T08:42:24.267Z,12.50
2023-02-13T08:45:51.470Z,12.60
2023-02-13T08:49:19.045Z,10.70
2023-02-13T08:52:46.370Z,10.00
2023-02-13T08:56:13.593Z,12.00
2023-02-13T08:59:40.743Z,12.30
2023-02-13T09:03:10.095Z,10.70
2023-02-13T09:06:37.988Z,11.50
2023-02-13T09:10:05.538Z,12.90
2023-02-13T09:13:34.564Z,13.00
2023-02-13T09:17:01.636Z,13.00
2023-02-13T09:20:29.006Z,12.60
2023-02-13T09:23:56.364Z,12.10
2023-02-13T09:27:23.409Z,12.70
2023-02-13T09:30:50.919Z,13.40
2023-02-13T09:34:18.353Z,15.50
2023-02-13T09:37:45.920Z,15.10
2023-02-13T09:41:17.419Z,15.30
2023-02-13T09:44:46.295Z,18.40
2023-02-13T09:48:20.541Z,19.30
2023-02-13T09:51:49.830Z,20.00
2023-02-13T09:55:22.974Z,22.20
2023-02-13T09:58:58.701Z,16.10
2023-02-13T10:02:42.558Z,16.80
2023-02-13T10:06:16.195Z,14.90
2023-02-13T10:09:54.225Z,11.50
2023-02-13T10:13:34.004Z,10.30
2023-02-13T10:17:05.474Z,10.40
2023-02-13T10:20:37.140Z,8.80
2023-02-13T10:24:08.730Z,8.50
2023-02-13T10:27:41.448Z,8.40
2023-02-13T10:31:12.358Z,8.40
2023-02-13T10:34:44.966Z,8.50
2023-02-13T10:38:20.450Z,7.50
2023-02-13T10:41:57.812Z,7.00
2023-02-13T10:45:47.416Z,6.90
2023-02-13T10:49:38.093Z,7.70
2023-02-13T10:53:18.102Z,8.10
2023-02-13T10:56:52.959Z,7.80
2023-02-13T11:00:27.312Z,7.50
2023-02-13T11:04:07.572Z,7.80
2023-02-13T11:07:37.106Z,8.70
2023-02-13T11:11:05.969Z,8.60
2023-02-13T11:14:33.806Z,8.00
2023-02-13T11:18:13.436Z,7.20
2023-02-13T11:21:41.133Z,7.90
2023-02-13T11:25:20.064Z,8.30
2023-02-13T11:28:55.564Z,7.40
2023-02-13T11:32:25.235Z,7.70
2023-02-13T11:36:05.022Z,7.30
2023-02-13T11:42:57.789Z,7.10
2023-02-13T11:46:27.004Z,7.40
2023-02-13T11:49:54.328Z,7.90
2023-02-13T11:53:25.585Z,7.50
2023-02-13T11:57:04.696Z,7.40
2023-02-13T12:00:40.051Z,6.90
2023-02-13T12:04:16.208Z,7.30
2023-02-13T12:07:44.561Z,7.40
2023-02-13T12:11:23.385Z,7.50
2023-02-13T12:14:51.799Z,7.60
2023-02-13T12:18:28.097Z,8.10
2023-02-13T12:22:15.077Z,8.60
2023-02-13T12:25:55.273Z,8.70
2023-02-13T12:29:39.071Z,8.00
2023-02-13T12:33:18.971Z,7.90
2023-02-13T12:40:44.367Z,8.40
2023-02-13T12:44:42.820Z,8.80
2023-02-13T12:48:29.580Z,9.20
2023-02-13T12:52:15.147Z,8.90
2023-02-13T12:56:03.066Z,8.30
2023-02-13T12:59:43.260Z,8.70
2023-02-13T13:03:41.303Z,8.60
2023-02-13T13:07:30.240Z,8.20
2023-02-13T13:11:13.975Z,8.50
2023-02-13T13:14:46.470Z,7.60
2023-02-13T13:18:29.767Z,8.20
2023-02-13T13:22:01.714Z,8.40
2023-02-13T13:25:49.736Z,8.70
2023-02-13T13:29:22.025Z,8.30
2023-02-13T13:32:53.251Z,8.10
2023-02-13T13:36:36.830Z,8.90
2023-02-13T13:40:17.976Z,8.80
2023-02-13T13:43:58.770Z,10.00
2023-02-13T13:47:41.892Z,20.60
2023-02-13T13:51:20.149Z,12.00
2023-02-13T13:55:00.690Z,28.30
2023-02-13T13:58:36.754Z,25.50
2023-02-13T14:02:41.586Z,49.10
2023-02-13T14:06:11.716Z,60.50
2023-02-13T14:09:43.986Z,67.50
2023-02-13T14:13:11.603Z,122.00
2023-02-13T14:17:01.939Z,58.70
2023-02-13T14:20:38.919Z,75.30
2023-02-13T14:24:36.078Z,52.70
2023-02-13T14:28:05.741Z,52.50
2023-02-13T14:31:35.842Z,63.30
2023-02-13T14:35:07.488Z,53.90
2023-02-13T14:38:35.680Z,37.50
2023-02-13T14:42:04.536Z,35.70
2023-02-13T14:45:35.240Z,33.60
2023-02-13T14:49:08.232Z,17.10
2023-02-13T14:52:43.062Z,13.80
2023-02-13T14:56:14.563Z,13.80
2023-02-13T14:59:47.847Z,12.80
2023-02-13T15:03:25.939Z,13.40
2023-02-13T15:06:55.489Z,11.60
2023-02-13T15:10:37.484Z,11.00
2023-02-13T15:14:23.238Z,10.70
2023-02-13T15:17:50.747Z,10.50
2023-02-13T15:21:22.315Z,10.30
2023-02-13T15:24:51.753Z,9.90
2023-02-13T15:28:23.082Z,9.60
2023-02-13T15:31:52.825Z,9.90
2023-02-13T15:35:28.101Z,9.10
2023-02-13T15:39:09.530Z,8.20
2023-02-13T15:42:39.035Z,7.70
2023-02-13T15:46:19.019Z,8.40
2023-02-13T15:49:50.406Z,9.20
2023-02-13T15:53:19.913Z,8.60
2023-02-13T15:56:49.786Z,8.90
2023-02-13T16:00:25.630Z,8.40
2023-02-13T16:04:00.041Z,9.40
2023-02-13T16:07:27.215Z,8.70
2023-02-13T16:11:25.122Z,8.50
2023-02-13T16:14:56.397Z,10.20
2023-02-13T16:18:23.820Z,9.40
2023-02-13T16:21:52.968Z,10.10
2023-02-13T16:25:26.155Z,11.20
2023-02-13T16:28:55.229Z,11.60
2023-02-13T16:32:29.422Z,12.30
2023-02-13T16:35:58.079Z,10.90
2023-02-13T16:39:45.677Z,10.90
2023-02-13T16:43:51.742Z,17.60
2023-02-13T16:47:25.325Z,19.60
2023-02-13T16:50:59.532Z,15.50
2023-02-13T16:54:34.680Z,11.30
2023-02-13T16:58:07.300Z,9.70
2023-02-13T17:01:38.347Z,10.70
2023-02-13T17:05:25.062Z,10.70
2023-02-13T17:08:53.869Z,10.50
2023-02-13T17:12:21.897Z,10.30
2023-02-13T17:15:50.465Z,9.80
2023-02-13T17:19:17.811Z,10.50
2023-02-13T17:22:47.277Z,11.60
2023-02-13T17:26:16.929Z,12.50
2023-02-13T17:29:44.224Z,11.30
2023-02-13T17:33:16.524Z,10.80
2023-02-13T17:36:43.631Z,10.90
2023-02-13T17:40:16.619Z,11.70
2023-02-13T17:43:43.900Z,11.10
2023-02-13T17:47:11.372Z,12.20
2023-02-13T17:50:39.875Z,10.90
2023-02-13T17:54:07.579Z,10.50
2023-02-13T17:57:37.957Z,11.50
2023-02-13T18:01:06.017Z,11.20
2023-02-13T18:04:42.710Z,21.60
2023-02-13T18:08:13.217Z,30.40
2023-02-13T18:11:40.525Z,16.90
2023-02-13T18:15:09.326Z,15.30
2023-02-13T18:18:36.643Z,15.40
2023-02-13T18:22:04.050Z,15.10
2023-02-13T18:25:31.419Z,15.40
2023-02-13T18:28:58.784Z,15.50
2023-02-13T18:32:26.361Z,14.60
2023-02-13T18:35:59.111Z,15.40
2023-02-13T18:39:26.401Z,16.80
2023-02-13T18:42:53.468Z,15.60
2023-02-13T18:46:20.831Z,16.00
2023-02-13T18:49:48.204Z,12.10
2023-02-13T18:53:15.660Z,12.30
2023-02-13T18:56:43.128Z,11.90
2023-02-13T19:00:17.326Z,13.80
2023-02-13T19:03:44.610Z,11.70
2023-02-13T19:07:11.953Z,11.70
2023-02-13T19:10:39.066Z,12.80
2023-02-13T19:14:07.370Z,12.60
2023-02-13T19:17:39.193Z,12.00
2023-02-13T19:21:07.865Z,12.30
2023-02-13T19:24:35.528Z,12.50
2023-02-13T19:28:02.746Z,12.70
2023-02-13T19:31:32.377Z,13.30
2023-02-13T19:34:59.762Z,12.40
2023-02-13T19:38:26.945Z,13.10
2023-02-13T19:41:54.297Z,12.80
2023-02-13T19:45:21.986Z,12.40
2023-02-13T19:48:49.646Z,13.60
2023-02-13T19:52:17.140Z,13.30
2023-02-13T19:55:44.556Z,15.50
2023-02-13T19:59:13.629Z,16.10
2023-02-13T20:02:41.591Z,14.20
2023-02-13T20:06:14.119Z,13.90
2023-02-13T20:09:42.094Z,12.20
2023-02-13T20:13:09.261Z,12.10
2023-02-13T20:16:37.106Z,12.50
2023-02-13T20:20:05.293Z,10.90
2023-02-13T20:23:32.658Z,12.60
2023-02-13T20:26:59.931Z,12.20
2023-02-13T20:30:27.692Z,12.90
2023-02-13T20:33:59.471Z,20.30
2023-02-13T20:37:26.762Z,17.50
2023-02-13T20:40:57.829Z,22.60
2023-02-13T20:44:29.732Z,15.90
2023-02-13T20:47:56.994Z,14.60
2023-02-13T20:51:24.294Z,14.20
2023-02-13T20:54:51.501Z,13.40
2023-02-13T20:58:19.358Z,14.30
2023-02-13T21:01:50.075Z,17.70
2023-02-13T21:05:18.214Z,19.60
2023-02-13T21:08:46.566Z,19.30
2023-02-13T21:12:14.514Z,26.90
2023-02-13T21:15:41.985Z,24.70
2023-02-13T21:19:13.017Z,23.80
2023-02-13T21:22:40.441Z,38.30
2023-02-13T21:26:13.409Z,42.00
2023-02-13T21:29:41.256Z,41.90
2023-02-13T21:33:08.374Z,38.40
2023-02-13T21:36:37.311Z,38.90
2023-02-13T21:40:08.524Z,43.40
2023-02-13T21:43:37.975Z,42.10
2023-02-13T21:47:11.289Z,47.00
2023-02-13T21:50:48.419Z,39.80
2023-02-13T21:54:16.340Z,44.10
2023-02-13T21:57:44.115Z,38.40
2023-02-13T22:01:25.460Z,49.40
2023-02-13T22:04:53.805Z,52.20
2023-02-13T22:08:21.017Z,50.20
2023-02-13T22:11:50.442Z,54.20
2023-02-13T22:15:19.239Z,55.20
2023-02-13T22:18:49.105Z,46.70
2023-02-13T22:22:16.387Z,43.80
2023-02-13T22:25:48.056Z,34.90
2023-02-13T22:29:17.921Z,38.90
2023-02-13T22:32:47.751Z,30.40
2023-02-13T22:36:16.828Z,28.40
2023-02-13T22:39:44.074Z,30.60
2023-02-13T22:43:13.632Z,41.50
2023-02-13T22:46:40.912Z,33.50
2023-02-13T22:50:10.325Z,27.40
2023-02-13T22:53:38.554Z,24.50
2023-02-13T22:57:06.200Z,31.00
2023-02-13T23:00:33.474Z,30.40
2023-02-13T23:04:00.911Z,31.30
2023-02-13T23:07:28.224Z,31.40
2023-02-13T23:11:13.127Z,30.20
2023-02-13T23:14:40.327Z,27.30
2023-02-13T23:18:13.914Z,27.00
2023-02-13T23:21:41.088Z,25.00
2023-02-13T23:25:09.051Z,25.70
2023-02-13T23:28:43.785Z,27.20
2023-02-13T23:32:11.178Z,29.80
2023-02-13T23:35:38.427Z,27.70
2023-02-13T23:39:05.696Z,30.20
2023-02-13T23:42:32.881Z,25.70
2023-02-13T23:46:00.166Z,21.40
2023-02-13T23:49:27.435Z,20.80
2023-02-13T23:52:54.770Z,20.80
2023-02-13T23:56:22.067Z,22.20
2023-02-13T23:59:49.482Z,23.40
